| time (UTC) | temp C | wind direction | speed KPH | gust KPH | rain 1hr cm | rain 24hr cm | rain mn cm | humidity % | barometer mb |
| 20260906102901 | 18 | 0 | 0.0 | 0.0 | 0.00 | 0.03 | 0.00 | 68 | 1015.3 |
| 20260906101501 | 18 | 0 | 0.0 | 0.0 | 0.00 | 0.03 | 0.00 | 68 | 1015.4 |
| 20260906100801 | 18 | 0 | 0.0 | 0.0 | 0.00 | 0.03 | 0.00 | 68 | 1015.4 |
| 20260906095401 | 18 | 0 | 0.0 | 0.0 | 0.00 | 0.03 | 0.00 | 68 | 1015.5 |
| 20260906094701 | 18 | 0 | 0.0 | 0.0 | 0.00 | 0.03 | 0.00 | 68 | 1015.5 |
| 20260906094001 | 18 | 0 | 0.0 | 0.0 | 0.00 | 0.03 | 0.00 | 68 | 1015.5 |
| 20260906092601 | 18 | 0 | 0.0 | 0.0 | 0.00 | 0.03 | 0.00 | 68 | 1015.4 |
| 20260906091201 | 18 | 0 | 0.0 | 0.0 | 0.00 | 0.03 | 0.00 | 68 | 1015.3 |
| 20260906090501 | 18 | 94 | 0.0 | 1.6 | 0.00 | 0.03 | 0.00 | 68 | 1015.2 |
| 20260906085801 | 18 | 94 | 0.0 | 3.2 | 0.00 | 0.03 | 0.00 | 68 | 1015.3 |
| 20260906085101 | 18 | 94 | 0.0 | 3.2 | 0.00 | 0.03 | 0.00 | 68 | 1015.2 |
| 20260906084401 | 18 | 94 | 0.0 | 3.2 | 0.00 | 0.03 | 0.00 | 68 | 1015.1 |
| 20260906083001 | 18 | 0 | 0.0 | 0.0 | 0.00 | 0.03 | 0.00 | 69 | 1015.2 |
| 20260906082301 | 18 | 0 | 0.0 | 0.0 | 0.00 | 0.03 | 0.00 | 69 | 1015.2 |
| 20260906081601 | 18 | 94 | 0.0 | 1.6 | 0.00 | 0.03 | 0.00 | 69 | 1015.3 |
| 20260906080901 | 18 | 94 | 0.0 | 1.6 | 0.00 | 0.03 | 0.00 | 69 | 1015.2 |
| 20260906080201 | 18 | 0 | 0.0 | 0.0 | 0.00 | 0.03 | 0.00 | 68 | 1015.2 |
| 20260906075501 | 18 | 0 | 0.0 | 0.0 | 0.00 | 0.03 | 0.00 | 68 | 1015.1 |
| 20260906074801 | 18 | 0 | 0.0 | 0.0 | 0.00 | 0.03 | 0.00 | 69 | 1015.1 |
| 20260906074101 | 18 | 0 | 0.0 | 0.0 | 0.00 | 0.03 | 0.00 | 69 | 1015.0 |
| 20260906073401 | 18 | 94 | 0.0 | 1.6 | 0.00 | 0.03 | 0.00 | 69 | 1014.9 |
| 20260906072701 | 18 | 94 | 0.0 | 4.8 | 0.00 | 0.03 | 0.00 | 69 | 1014.9 |
| 20260906072001 | 18 | 94 | 0.0 | 1.6 | 0.00 | 0.03 | 0.00 | 69 | 1015.0 |
| 20260906070601 | 18 | 0 | 0.0 | 0.0 | 0.00 | 0.03 | 0.00 | 69 | 1015.2 |
| 20260906065901 | 18 | 98 | 1.6 | 4.8 | 0.00 | 0.03 | 0.00 | 69 | 1015.3 |
| 20260906065201 | 18 | 102 | 0.0 | 3.2 | 0.00 | 0.03 | 0.00 | 69 | 1015.3 |
| 20260906064501 | 18 | 99 | 0.0 | 1.6 | 0.00 | 0.03 | 0.00 | 69 | 1015.3 |
| 20260906063801 | 18 | 99 | 0.0 | 1.6 | 0.00 | 0.03 | 0.00 | 69 | 1015.3 |
| 20260906063101 | 18 | 98 | 0.0 | 1.6 | 0.00 | 0.03 | 0.00 | 69 | 1015.2 |
| 20260906062401 | 18 | 99 | 0.0 | 1.6 | 0.00 | 0.03 | 0.00 | 69 | 1015.3 |
| 20260906061001 | 18 | 97 | 0.0 | 3.2 | 0.00 | 0.03 | 0.00 | 70 | 1015.4 |
| 20260906060301 | 19 | 93 | 1.6 | 8.0 | 0.00 | 0.03 | 0.00 | 70 | 1015.5 |
| 20260906055601 | 18 | 81 | 3.2 | 8.0 | 0.00 | 0.03 | 0.00 | 70 | 1015.5 |
| 20260906054901 | 19 | 45 | 1.6 | 6.4 | 0.00 | 0.03 | 0.00 | 70 | 1015.7 |
| 20260906054201 | 19 | 24 | 1.6 | 6.4 | 0.00 | 0.03 | 0.00 | 70 | 1016.0 |
| 20260906053501 | 19 | 22 | 0.0 | 3.2 | 0.00 | 0.03 | 0.00 | 70 | 1016.1 |
| 20260906052801 | 19 | 0 | 0.0 | 0.0 | 0.00 | 0.03 | 0.00 | 70 | 1016.2 |
| 20260906052101 | 19 | 0 | 0.0 | 0.0 | 0.00 | 0.03 | 0.00 | 70 | 1016.2 |
| 20260906051401 | 19 | 0 | 0.0 | 0.0 | 0.00 | 0.03 | 0.00 | 70 | 1016.3 |
| 20260906050701 | 19 | 0 | 0.0 | 0.0 | 0.00 | 0.03 | 0.00 | 70 | 1016.3 |
| 20260906050001 | 19 | 0 | 0.0 | 0.0 | 0.00 | 0.03 | 0.00 | 70 | 1016.3 |
| 20260906045301 | 19 | 0 | 0.0 | 0.0 | 0.00 | 0.03 | 0.00 | 70 | 1016.2 |
| 20260906044601 | 19 | 0 | 0.0 | 0.0 | 0.00 | 0.03 | 0.00 | 71 | 1016.1 |
| 20260906043901 | 20 | 0 | 0.0 | 0.0 | 0.00 | 0.03 | 0.00 | 70 | 1016.2 |
| 20260906043200 | 20 | 22 | 0.0 | 1.6 | 0.00 | 0.03 | 0.00 | 70 | 1016.1 |
| 20260906042501 | 20 | 55 | 0.0 | 6.4 | 0.00 | 0.03 | 0.00 | 70 | 1016.2 |
| 20260906041801 | 20 | 82 | 1.6 | 6.4 | 0.03 | 0.03 | 0.00 | 70 | 1016.1 |
| 20260906041101 | 20 | 75 | 1.6 | 8.0 | 0.03 | 0.03 | 0.00 | 70 | 1016.0 |
| 20260906040401 | 20 | 49 | 0.0 | 8.0 | 0.03 | 0.03 | 0.00 | 70 | 1016.2 |
| 20260906035701 | 20 | 47 | 0.0 | 6.4 | 0.03 | 0.03 | 0.03 | 71 | 1016.2 |
| 20260906035001 | 20 | 46 | 1.6 | 3.2 | 0.03 | 0.03 | 0.03 | 71 | 1016.2 |
| 20260906034301 | 20 | 45 | 0.0 | 3.2 | 0.03 | 0.03 | 0.03 | 71 | 1016.2 |
| 20260906033600 | 20 | 45 | 0.0 | 3.2 | 0.03 | 0.03 | 0.03 | 71 | 1016.3 |
| 20260906032901 | 20 | 58 | 0.0 | 6.4 | 0.03 | 0.03 | 0.03 | 71 | 1016.2 |
| 20260906031501 | 20 | 79 | 0.0 | 3.2 | 0.00 | 0.00 | 0.00 | 71 | 1016.3 |
| 20260906030801 | 20 | 79 | 0.0 | 3.2 | 0.00 | 0.00 | 0.00 | 72 | 1016.3 |
| 20260906030101 | 20 | 79 | 0.0 | 3.2 | 0.00 | 0.00 | 0.00 | 72 | 1016.3 |
| 20260906025401 | 20 | 0 | 0.0 | 0.0 | 0.00 | 0.00 | 0.00 | 72 | 1016.3 |
| 20260906024001 | 20 | 79 | 0.0 | 3.2 | 0.00 | 0.00 | 0.00 | 72 | 1016.4 |
| 20260906023301 | 20 | 79 | 0.0 | 3.2 | 0.00 | 0.00 | 0.00 | 72 | 1016.2 |
| 20260906021900 | 20 | 79 | 0.0 | 3.2 | 0.00 | 0.00 | 0.00 | 72 | 1016.0 |
| 20260906021201 | 21 | 0 | 0.0 | 0.0 | 0.00 | 0.00 | 0.00 | 72 | 1016.0 |
| 20260906020501 | 21 | 79 | 0.0 | 1.6 | 0.00 | 0.00 | 0.00 | 73 | 1016.1 |
| 20260906015800 | 21 | 79 | 0.0 | 1.6 | 0.00 | 0.00 | 0.00 | 73 | 1015.8 |
| 20260906015101 | 21 | 79 | 0.0 | 1.6 | 0.00 | 0.00 | 0.00 | 73 | 1015.8 |
| 20260906013701 | 21 | 78 | 0.0 | 6.4 | 0.00 | 0.00 | 0.00 | 73 | 1015.7 |
| 20260906013000 | 21 | 78 | 1.6 | 6.4 | 0.00 | 0.00 | 0.00 | 73 | 1015.6 |
| 20260906012300 | 21 | 77 | 0.0 | 6.4 | 0.00 | 0.00 | 0.00 | 73 | 1015.5 |
| 20260906011601 | 21 | 0 | 0.0 | 0.0 | 0.00 | 0.00 | 0.00 | 74 | 1015.4 |
| 20260906010900 | 21 | 0 | 0.0 | 0.0 | 0.00 | 0.00 | 0.00 | 74 | 1015.4 |
| 20260906010201 | 21 | 0 | 0.0 | 0.0 | 0.00 | 0.00 | 0.00 | 74 | 1015.4 |
| 20260906005500 | 21 | 77 | 0.0 | 3.2 | 0.00 | 0.00 | 0.00 | 75 | 1015.3 |
| 20260906004100 | 21 | 77 | 0.0 | 3.2 | 0.00 | 0.00 | 0.00 | 75 | 1015.0 |
| 20260906003400 | 22 | 76 | 0.0 | 6.4 | 0.00 | 0.00 | 0.00 | 75 | 1015.0 |
| 20260906002701 | 22 | 90 | 0.0 | 1.6 | 0.00 | 0.00 | 0.00 | 76 | 1015.1 |
| 20260906002001 | 22 | 90 | 0.0 | 1.6 | 0.00 | 0.00 | 0.00 | 76 | 1015.1 |
| 20260905235900 | 22 | 90 | 0.0 | 1.6 | 0.00 | 0.00 | 0.00 | 77 | 1015.2 |
| 20260905235200 | 23 | 90 | 0.0 | 1.6 | 0.00 | 0.00 | 0.00 | 78 | 1015.2 |
| 20260905234502 | 23 | 0 | 0.0 | 0.0 | 0.00 | 0.00 | 0.00 | 78 | 1014.9 |
| 20260905233802 | 23 | 89 | 1.6 | 3.2 | 0.00 | 0.00 | 0.00 | 79 | 1014.9 |
| 20260905233100 | 23 | 90 | 3.2 | 8.0 | 0.00 | 0.00 | 0.00 | 79 | 1014.9 |
| 20260905232401 | 23 | 90 | 3.2 | 12.9 | 0.00 | 0.00 | 0.00 | 79 | 1015.1 |
| 20260905231700 | 23 | 84 | 4.8 | 12.9 | 0.00 | 0.00 | 0.00 | 80 | 1014.8 |
| 20260905231000 | 23 | 66 | 4.8 | 9.7 | 0.00 | 0.00 | 0.00 | 80 | 1014.9 |
| 20260905230300 | 23 | 76 | 3.2 | 9.7 | 0.00 | 0.00 | 0.00 | 80 | 1014.9 |
| 20260905225600 | 23 | 82 | 1.6 | 8.0 | 0.00 | 0.00 | 0.00 | 80 | 1015.1 |
| 20260905223501 | 24 | 82 | 1.6 | 6.4 | 0.00 | 0.00 | 0.00 | 80 | 1015.1 |
| 20260905222801 | 24 | 82 | 0.0 | 3.2 | 0.00 | 0.00 | 0.00 | 80 | 1015.1 |
| 20260905222100 | 24 | 58 | 1.6 | 8.0 | 0.00 | 0.00 | 0.00 | 80 | 1015.1 |
| 20260905221400 | 24 | 12 | 0.0 | 6.4 | 0.00 | 0.00 | 0.00 | 80 | 1015.0 |
| 20260905220700 | 24 | 12 | 0.0 | 1.6 | 0.00 | 0.00 | 0.00 | 80 | 1015.1 |
| 20260905220000 | 25 | 0 | 0.0 | 0.0 | 0.00 | 0.00 | 0.00 | 80 | 1015.2 |
| 20260905215301 | 25 | 12 | 1.6 | 6.4 | 0.00 | 0.00 | 0.00 | 79 | 1015.4 |
| 20260905214600 | 25 | 25 | 3.2 | 9.7 | 0.00 | 0.00 | 0.00 | 78 | 1015.4 |
| 20260905213900 | 25 | 74 | 4.8 | 12.9 | 0.00 | 0.00 | 0.00 | 78 | 1015.1 |
| 20260905213200 | 25 | 99 | 3.2 | 9.7 | 0.00 | 0.00 | 0.00 | 77 | 1015.1 |
| 20260905212500 | 25 | 73 | 4.8 | 9.7 | 0.00 | 0.00 | 0.00 | 77 | 1015.2 |
| 20260905211800 | 25 | 33 | 1.6 | 8.0 | 0.00 | 0.00 | 0.00 | 76 | 1015.2 |
| 20260905210400 | 25 | 38 | 1.6 | 8.0 | 0.00 | 0.00 | 0.00 | 76 | 1015.0 |
| 20260905203342 | 26 | 77 | 9.7 | 24.1 | 0.00 | 0.00 | 0.00 | 76 | 1015.8 |
| 20260905202643 | 26 | 73 | 6.4 | 24.1 | 0.00 | 0.00 | 0.00 | 77 | 1015.9 |
| 20260905201231 | 27 | 90 | 6.4 | 12.9 | 0.00 | 0.00 | 0.00 | 77 | 1016.3 |
| 20260905200542 | 27 | 83 | 3.2 | 9.7 | 0.00 | 0.00 | 0.00 | 77 | 1016.2 |
| 20260905195831 | 27 | 67 | 1.6 | 8.0 | 0.00 | 0.00 | 0.00 | 76 | 1016.0 |
| 20260905195132 | 28 | 66 | 4.8 | 11.3 | 0.00 | 0.00 | 0.00 | 75 | 1015.7 |
| 20260905184138 | 27 | 58 | 4.8 | 9.7 | 0.00 | 0.00 | 0.00 | 77 | 1016.0 |
| 20260905183438 | 27 | 56 | 4.8 | 11.3 | 0.00 | 0.00 | 0.00 | 74 | 1015.8 |
| 20260905182738 | 28 | 65 | 4.8 | 11.3 | 0.00 | 0.00 | 0.00 | 72 | 1015.6 |
| 20260905182038 | 30 | 28 | 3.2 | 11.3 | 0.00 | 0.00 | 0.00 | 69 | 1015.7 |
| 20260905181338 | 31 | 119 | 3.2 | 11.3 | 0.00 | 0.00 | 0.00 | 66 | 1015.7 |
| 20260905180638 | 32 | 231 | 4.8 | 14.5 | 0.00 | 0.00 | 0.00 | 61 | 1016.0 |
| 20260905175938 | 32 | 233 | 4.8 | 14.5 | 0.00 | 0.00 | 0.00 | 64 | 1015.9 |
| 20260905174538 | 32 | 215 | 8.0 | 14.5 | 0.00 | 0.00 | 0.00 | 66 | 1016.2 |
| 20260905173138 | 32 | 227 | 6.4 | 16.1 | 0.00 | 0.00 | 0.00 | 68 | 1016.5 |
| 20260905172438 | 31 | 212 | 6.4 | 16.1 | 0.00 | 0.00 | 0.00 | 67 | 1016.5 |
| 20260905171738 | 31 | 215 | 4.8 | 12.9 | 0.00 | 0.00 | 0.00 | 69 | 1016.4 |
| 20260905171038 | 31 | 239 | 4.8 | 12.9 | 0.00 | 0.00 | 0.00 | 65 | 1016.4 |
| 20260905170338 | 31 | 235 | 6.4 | 14.5 | 0.00 | 0.00 | 0.00 | 70 | 1016.7 |
| 20260905165638 | 31 | 243 | 8.0 | 14.5 | 0.00 | 0.00 | 0.00 | 68 | 1016.7 |
| 20260905164938 | 31 | 256 | 4.8 | 14.5 | 0.00 | 0.00 | 0.00 | 68 | 1017.0 |
| 20260905164238 | 30 | 247 | 3.2 | 9.7 | 0.00 | 0.00 | 0.00 | 71 | 1017.2 |
| 20260905163538 | 30 | 246 | 4.8 | 14.5 | 0.00 | 0.00 | 0.00 | 71 | 1017.1 |
| 20260905162838 | 30 | 242 | 4.8 | 14.5 | 0.00 | 0.00 | 0.00 | 72 | 1017.2 |
| 20260905162138 | 30 | 270 | 4.8 | 14.5 | 0.00 | 0.00 | 0.00 | 70 | 1017.3 |
| 20260905160738 | 30 | 237 | 4.8 | 12.9 | 0.00 | 0.00 | 0.00 | 71 | 1017.4 |
| 20260905160038 | 30 | 270 | 4.8 | 14.5 | 0.00 | 0.00 | 0.00 | 71 | 1017.5 |
| 20260905155338 | 30 | 274 | 4.8 | 14.5 | 0.00 | 0.00 | 0.00 | 72 | 1017.6 |
| 20260905154638 | 30 | 281 | 3.2 | 11.3 | 0.00 | 0.00 | 0.00 | 72 | 1017.6 |
| 20260905153937 | 29 | 300 | 1.6 | 9.7 | 0.00 | 0.00 | 0.00 | 73 | 1017.6 |
| 20260905153238 | 28 | 280 | 3.2 | 9.7 | 0.00 | 0.00 | 0.00 | 74 | 1017.7 |
| 20260905152538 | 28 | 238 | 3.2 | 11.3 | 0.00 | 0.00 | 0.00 | 73 | 1017.9 |
| 20260905151838 | 28 | 254 | 1.6 | 8.0 | 0.00 | 0.00 | 0.00 | 74 | 1017.9 |
| 20260905151138 | 27 | 273 | 3.2 | 9.7 | 0.00 | 0.00 | 0.00 | 75 | 1017.9 |
| 20260905145738 | 27 | 265 | 1.6 | 8.0 | 0.00 | 0.00 | 0.00 | 75 | 1018.0 |
| 20260905145038 | 27 | 233 | 1.6 | 9.7 | 0.00 | 0.00 | 0.00 | 75 | 1017.9 |
| 20260905143638 | 26 | 240 | 3.2 | 8.0 | 0.00 | 0.00 | 0.00 | 76 | 1018.1 |
| 20260905142938 | 26 | 243 | 1.6 | 9.7 | 0.00 | 0.00 | 0.00 | 76 | 1018.1 |
| 20260905142238 | 26 | 263 | 1.6 | 6.4 | 0.00 | 0.00 | 0.00 | 76 | 1018.2 |
| 20260905141538 | 25 | 286 | 0.0 | 8.0 | 0.00 | 0.00 | 0.00 | 76 | 1018.1 |
| 20260905135437 | 23 | 216 | 1.6 | 6.4 | 0.00 | 0.00 | 0.00 | 77 | 1018.4 |
| 20260905134738 | 23 | 215 | 1.6 | 6.4 | 0.00 | 0.00 | 0.00 | 76 | 1018.4 |
| 20260905133337 | 22 | 175 | 1.6 | 4.8 | 0.00 | 0.00 | 0.00 | 73 | 1018.7 |
| 20260905131937 | 22 | 161 | 0.0 | 3.2 | 0.00 | 0.00 | 0.00 | 72 | 1018.7 |
| 20260905130538 | 22 | 80 | 0.0 | 3.2 | 0.00 | 0.00 | 0.00 | 72 | 1018.6 |
| 20260905125137 | 21 | 65 | 0.0 | 1.6 | 0.00 | 0.00 | 0.00 | 67 | 1018.5 |
| 20260905123737 | 21 | 64 | 0.0 | 3.2 | 0.00 | 0.00 | 0.00 | 67 | 1018.5 |
| 20260905123038 | 20 | 65 | 0.0 | 3.2 | 0.00 | 0.00 | 0.00 | 67 | 1018.4 |
| 20260905122338 | 20 | 65 | 0.0 | 1.6 | 0.00 | 0.00 | 0.00 | 68 | 1018.4 |
| 20260905121637 | 20 | 65 | 0.0 | 1.6 | 0.00 | 0.00 | 0.00 | 68 | 1018.4 |
| 20260905120937 | 19 | 0 | 0.0 | 0.0 | 0.00 | 0.00 | 0.00 | 68 | 1018.3 |
| 20260905120238 | 19 | 65 | 0.0 | 1.6 | 0.00 | 0.00 | 0.00 | 68 | 1018.2 |
| 20260905115537 | 18 | 65 | 0.0 | 1.6 | 0.00 | 0.00 | 0.00 | 68 | 1018.2 |
| 20260905114137 | 18 | 65 | 0.0 | 3.2 | 0.00 | 0.03 | 0.00 | 68 | 1018.0 |
| 20260905113438 | 18 | 0 | 0.0 | 0.0 | 0.00 | 0.03 | 0.00 | 69 | 1017.8 |
| 20260905112738 | 18 | 64 | 0.0 | 1.6 | 0.00 | 0.03 | 0.00 | 69 | 1017.6 |
| 20260905112037 | 18 | 65 | 0.0 | 3.2 | 0.00 | 0.03 | 0.00 | 69 | 1017.6 |
| 20260905110637 | 18 | 65 | 0.0 | 1.6 | 0.00 | 0.03 | 0.00 | 69 | 1017.4 |
| 20260905105937 | 18 | 0 | 0.0 | 0.0 | 0.00 | 0.03 | 0.00 | 69 | 1017.5 |
| 20260905104537 | 18 | 65 | 0.0 | 1.6 | 0.00 | 0.03 | 0.00 | 69 | 1017.3 |
| 20260905103138 | 18 | 65 | 0.0 | 1.6 | 0.00 | 0.03 | 0.00 | 69 | 1017.3 |